createdAt,value
2017-12-11T00:02:19.082Z,2.00
2017-12-11T00:04:46.531Z,2.00
2017-12-11T00:07:14.011Z,2.00
2017-12-11T00:09:41.483Z,2.00
2017-12-11T00:12:08.999Z,2.00
2017-12-11T00:14:37.223Z,2.00
2017-12-11T00:17:04.696Z,2.00
2017-12-11T00:19:32.159Z,2.00
2017-12-11T00:22:00.413Z,2.00
2017-12-11T00:24:28.640Z,2.00
2017-12-11T00:26:56.124Z,2.00
2017-12-11T00:29:24.359Z,2.00
2017-12-11T00:31:51.822Z,2.00
2017-12-11T00:34:20.056Z,2.00
2017-12-11T00:36:48.325Z,2.00
2017-12-11T00:39:15.872Z,2.00
2017-12-11T00:41:44.132Z,2.00
2017-12-11T00:44:12.357Z,2.00
2017-12-11T00:46:39.834Z,2.00
2017-12-11T00:49:08.093Z,2.00
2017-12-11T00:51:36.312Z,1.90
2017-12-11T00:54:03.804Z,1.90
2017-12-11T00:56:32.052Z,2.00
2017-12-11T00:59:00.280Z,2.00
2017-12-11T01:01:27.857Z,1.90
2017-12-11T01:03:56.139Z,1.90
2017-12-11T01:06:24.380Z,1.90
2017-12-11T01:08:52.632Z,1.90
2017-12-11T01:11:20.180Z,1.90
2017-12-11T01:13:48.420Z,1.90
2017-12-11T01:16:15.989Z,1.90
2017-12-11T01:18:44.240Z,1.90
2017-12-11T01:21:11.786Z,1.90
2017-12-11T01:23:39.244Z,1.90
2017-12-11T01:26:07.489Z,1.90
2017-12-11T01:28:35.728Z,1.80
2017-12-11T01:31:03.294Z,1.80
2017-12-11T01:33:31.552Z,1.80
2017-12-11T01:35:59.812Z,1.90
2017-12-11T01:38:27.275Z,1.90
2017-12-11T01:40:55.508Z,1.90
2017-12-11T01:43:22.977Z,1.90
2017-12-11T01:45:51.212Z,1.90
2017-12-11T01:48:19.484Z,1.90
2017-12-11T01:50:47.700Z,1.90
2017-12-11T01:53:15.184Z,1.90
2017-12-11T01:55:43.408Z,1.80
2017-12-11T01:58:10.886Z,1.80
2017-12-11T02:00:39.128Z,1.70
2017-12-11T02:03:06.583Z,1.70
2017-12-11T02:05:34.840Z,1.80
2017-12-11T02:08:03.116Z,1.80
2017-12-11T02:10:31.347Z,1.80
2017-12-11T02:12:58.812Z,1.80
2017-12-11T02:15:27.048Z,1.90
2017-12-11T02:17:54.605Z,1.90
2017-12-11T02:20:22.064Z,2.00
2017-12-11T02:22:50.363Z,1.90
2017-12-11T02:25:17.769Z,1.90
2017-12-11T02:27:46.012Z,1.90
2017-12-11T02:30:14.238Z,1.90
2017-12-11T02:32:41.813Z,1.90
2017-12-11T02:35:10.073Z,2.00
2017-12-11T02:37:38.296Z,2.00
2017-12-11T02:40:05.760Z,2.00
2017-12-11T02:42:33.316Z,2.10
2017-12-11T02:45:01.550Z,2.20
2017-12-11T02:47:29.009Z,2.20
2017-12-11T02:49:56.581Z,2.20
2017-12-11T02:52:24.811Z,2.10
2017-12-11T02:54:52.292Z,2.10
2017-12-11T02:57:19.822Z,2.10
2017-12-11T02:59:48.048Z,2.00
2017-12-11T03:02:15.543Z,2.00
2017-12-11T03:04:43.004Z,2.00
2017-12-11T03:07:10.466Z,2.00
2017-12-11T03:09:38.036Z,2.00
2017-12-11T03:12:06.258Z,1.90
2017-12-11T03:14:33.740Z,1.90
2017-12-11T03:17:02.000Z,2.00
2017-12-11T03:19:30.240Z,1.90
2017-12-11T03:21:57.699Z,1.90
2017-12-11T03:24:25.960Z,1.80
2017-12-11T03:26:54.204Z,1.80
2017-12-11T03:29:21.659Z,1.80
2017-12-11T03:31:49.924Z,1.80
2017-12-11T03:34:18.144Z,1.90
2017-12-11T03:36:45.620Z,1.90
2017-12-11T03:39:13.164Z,1.90
2017-12-11T03:41:41.393Z,1.80
2017-12-11T03:44:08.849Z,1.80
2017-12-11T03:46:36.324Z,1.80
2017-12-11T03:49:04.564Z,1.90
2017-12-11T03:51:32.029Z,1.90
2017-12-11T03:53:59.500Z,1.90
2017-12-11T03:56:26.956Z,1.90
2017-12-11T03:58:54.432Z,2.00
2017-12-11T04:01:21.978Z,2.00
2017-12-11T04:03:50.240Z,2.10
2017-12-11T04:06:18.490Z,2.10
2017-12-11T04:08:46.048Z,2.10
2017-12-11T04:11:14.272Z,2.20
2017-12-11T04:13:41.852Z,2.20
2017-12-11T04:16:10.073Z,2.20
2017-12-11T04:18:37.552Z,2.20
2017-12-11T04:21:05.810Z,2.30
2017-12-11T04:23:34.028Z,2.30
2017-12-11T04:26:01.521Z,2.30
2017-12-11T04:28:29.750Z,2.40
2017-12-11T04:30:58.341Z,2.40
2017-12-11T04:33:26.567Z,2.40
2017-12-11T04:35:54.028Z,2.40
2017-12-11T04:38:21.590Z,2.40
2017-12-11T04:40:49.847Z,2.50
2017-12-11T04:43:18.082Z,2.50
2017-12-11T04:45:45.751Z,2.50
2017-12-11T04:48:14.010Z,2.50
2017-12-11T04:50:42.237Z,2.60
2017-12-11T04:53:09.696Z,2.50
2017-12-11T04:55:37.364Z,2.60
2017-12-11T04:58:05.592Z,2.70
2017-12-11T05:00:33.053Z,2.70
2017-12-11T05:03:00.515Z,2.70
2017-12-11T05:05:27.980Z,2.60
2017-12-11T05:07:55.451Z,2.60
2017-12-11T05:10:22.920Z,2.60
2017-12-11T05:12:50.376Z,2.60
2017-12-11T05:15:18.604Z,2.40
2017-12-11T05:17:46.079Z,2.40
2017-12-11T05:20:14.334Z,2.20
2017-12-11T05:22:42.584Z,2.20
2017-12-11T05:25:10.824Z,2.10
2017-12-11T05:27:38.285Z,2.10
2017-12-11T05:30:05.743Z,2.10
2017-12-11T05:32:34.092Z,2.00
2017-12-11T05:35:02.355Z,2.00
2017-12-11T05:37:30.575Z,2.00
2017-12-11T05:39:58.069Z,2.00
2017-12-11T05:42:26.292Z,2.00
2017-12-11T05:44:53.856Z,2.00
2017-12-11T05:47:21.317Z,2.00
2017-12-11T05:49:48.780Z,2.00
2017-12-11T05:52:16.279Z,2.10
2017-12-11T05:54:44.504Z,2.10
2017-12-11T05:57:11.984Z,2.10
2017-12-11T05:59:40.228Z,2.20
2017-12-11T06:02:07.679Z,2.10
2017-12-11T06:04:35.948Z,2.10
2017-12-11T06:07:04.189Z,2.10
2017-12-11T06:09:31.649Z,2.10
2017-12-11T06:11:59.876Z,2.20
2017-12-11T06:14:27.449Z,2.20
2017-12-11T06:16:55.820Z,2.20
2017-12-11T06:19:24.049Z,2.10
2017-12-11T06:21:51.520Z,2.10
2017-12-11T06:24:19.775Z,2.00
2017-12-11T06:26:48.016Z,2.00
2017-12-11T06:29:15.479Z,2.10
2017-12-11T06:31:43.703Z,2.00
2017-12-11T06:34:11.181Z,2.00
2017-12-11T06:36:39.409Z,2.00
2017-12-11T06:39:06.886Z,2.00
2017-12-11T06:41:35.104Z,2.00
2017-12-11T06:44:02.583Z,2.00
2017-12-11T06:46:30.847Z,2.00
2017-12-11T06:48:59.072Z,2.00
2017-12-11T06:51:26.536Z,2.00
2017-12-11T06:53:54.089Z,2.00
2017-12-11T06:56:22.347Z,2.00
2017-12-11T06:58:50.573Z,1.90
2017-12-11T07:01:18.051Z,1.90
2017-12-11T07:03:46.318Z,1.90
2017-12-11T07:06:14.572Z,2.00
2017-12-11T07:08:42.928Z,2.00
2017-12-11T07:11:11.157Z,2.00
2017-12-11T07:13:38.732Z,2.00
2017-12-11T07:16:06.968Z,2.10
2017-12-11T07:18:34.438Z,2.00
2017-12-11T07:21:02.704Z,2.10
2017-12-11T07:23:30.960Z,2.10
2017-12-11T07:25:59.212Z,2.00
2017-12-11T07:28:27.482Z,2.10
2017-12-11T07:30:55.724Z,2.00
2017-12-11T07:33:23.281Z,2.00
2017-12-11T07:35:50.824Z,2.00
2017-12-11T07:38:19.072Z,2.00
2017-12-11T07:40:46.535Z,2.00
2017-12-11T07:43:14.755Z,2.10
2017-12-11T07:45:42.330Z,2.10
2017-12-11T07:48:10.596Z,2.10
2017-12-11T07:50:38.849Z,2.10
2017-12-11T07:53:07.112Z,2.10
2017-12-11T07:55:35.340Z,2.10
2017-12-11T07:58:02.832Z,2.10
2017-12-11T08:00:30.348Z,2.10
2017-12-11T08:02:58.576Z,2.10
2017-12-11T08:05:26.060Z,2.10
2017-12-11T08:07:54.316Z,2.10
2017-12-11T08:10:22.538Z,2.10
2017-12-11T08:12:50.022Z,2.10
2017-12-11T08:15:18.274Z,2.00
2017-12-11T08:17:45.741Z,2.00
2017-12-11T08:20:13.200Z,2.00
2017-12-11T08:22:40.679Z,1.90
2017-12-11T08:25:08.148Z,1.90
2017-12-11T08:27:35.662Z,1.90
2017-12-11T08:32:25.912Z,1.90
2017-12-11T08:34:53.375Z,1.90
2017-12-11T08:37:20.836Z,1.90
2017-12-11T08:39:49.061Z,1.90
2017-12-11T08:42:16.620Z,1.90
2017-12-11T08:44:44.084Z,1.90
2017-12-11T08:47:11.543Z,1.90
2017-12-11T08:49:39.024Z,1.90
2017-12-11T08:52:06.480Z,2.00
2017-12-11T08:54:33.928Z,2.00
2017-12-11T08:57:01.410Z,2.00
2017-12-11T08:59:28.866Z,2.00
2017-12-11T09:01:56.324Z,2.00
2017-12-11T09:04:24.376Z,2.10
2017-12-11T09:06:51.887Z,2.00
2017-12-11T09:09:20.136Z,2.10
2017-12-11T09:11:47.680Z,2.10
2017-12-11T09:14:15.236Z,2.10
2017-12-11T09:16:43.460Z,2.20
2017-12-11T09:19:10.913Z,2.20
2017-12-11T09:21:38.368Z,2.20
2017-12-11T09:24:05.919Z,2.20
2017-12-11T09:26:34.272Z,2.20
2017-12-11T09:29:02.535Z,2.20
2017-12-11T09:31:30.757Z,2.20
2017-12-11T09:33:58.216Z,2.20
2017-12-11T09:36:25.786Z,2.20
2017-12-11T09:38:53.324Z,2.30
2017-12-11T09:41:20.781Z,2.30
2017-12-11T09:43:49.026Z,2.40
2017-12-11T09:46:16.572Z,2.40
2017-12-11T09:48:44.113Z,2.40
2017-12-11T09:51:11.568Z,2.40
2017-12-11T09:53:39.809Z,2.50
2017-12-11T09:56:07.356Z,2.40
2017-12-11T09:58:34.900Z,2.50
2017-12-11T10:01:03.156Z,2.60
2017-12-11T10:03:30.704Z,2.60
2017-12-11T10:05:58.171Z,2.60
2017-12-11T10:08:25.632Z,2.60
2017-12-11T10:10:53.132Z,2.60
2017-12-11T10:13:20.585Z,2.60
2017-12-11T10:15:48.811Z,2.70
2017-12-11T10:18:16.280Z,2.60
2017-12-11T10:20:44.505Z,2.70
2017-12-11T10:23:11.957Z,2.70
2017-12-11T10:25:39.511Z,2.70
2017-12-11T10:28:06.970Z,2.70
2017-12-11T10:30:35.187Z,2.60
2017-12-11T10:33:02.649Z,2.60
2017-12-11T10:35:30.130Z,2.60
2017-12-11T10:37:57.604Z,2.60
2017-12-11T10:40:25.109Z,2.60
2017-12-11T10:42:52.650Z,2.60
2017-12-11T10:45:20.108Z,2.60
2017-12-11T10:47:48.336Z,2.50
2017-12-11T10:50:15.796Z,2.50
2017-12-11T10:52:44.057Z,2.50
2017-12-11T10:55:11.601Z,2.40
2017-12-11T10:57:39.124Z,2.40
2017-12-11T11:00:06.684Z,2.50
2017-12-11T11:02:34.227Z,2.50
2017-12-11T11:05:01.680Z,2.50
2017-12-11T11:07:29.897Z,2.50
2017-12-11T11:09:57.372Z,2.50
2017-12-11T11:12:25.635Z,2.50
2017-12-11T11:14:53.177Z,2.50
2017-12-11T11:17:21.443Z,2.50
2017-12-11T11:19:49.698Z,2.40
2017-12-11T11:22:17.941Z,2.40
2017-12-11T11:24:45.394Z,2.50
2017-12-11T11:27:13.621Z,2.40
2017-12-11T11:29:41.097Z,2.40
2017-12-11T11:32:08.553Z,2.40
2017-12-11T11:34:36.772Z,2.40
2017-12-11T11:37:04.340Z,2.40
2017-12-11T11:39:33.300Z,2.40
2017-12-11T11:42:00.756Z,2.40
2017-12-11T11:44:28.216Z,2.40
2017-12-11T11:46:56.466Z,2.30
2017-12-11T11:49:23.936Z,2.30
2017-12-11T11:51:51.443Z,2.30
2017-12-11T11:54:18.988Z,2.30
2017-12-11T11:56:46.536Z,2.30
2017-12-11T11:59:14.760Z,2.20
2017-12-11T12:01:42.224Z,2.20
2017-12-11T12:04:09.680Z,2.20
2017-12-11T12:06:37.937Z,2.20
2017-12-11T12:09:05.389Z,2.20
2017-12-11T12:11:33.633Z,2.20
2017-12-11T12:14:01.181Z,2.20
2017-12-11T12:16:28.724Z,2.20
2017-12-11T12:18:56.268Z,2.20
2017-12-11T12:21:23.720Z,2.20
2017-12-11T12:23:51.952Z,2.20
2017-12-11T12:26:19.508Z,2.20
2017-12-11T12:28:46.966Z,2.20
2017-12-11T12:31:15.211Z,2.20
2017-12-11T12:33:42.673Z,2.20
2017-12-11T12:36:10.908Z,2.30
2017-12-11T12:38:38.461Z,2.30
2017-12-11T12:41:06.720Z,2.30
2017-12-11T12:43:34.940Z,2.40
2017-12-11T12:46:02.405Z,2.40
2017-12-11T12:48:29.964Z,2.40
2017-12-11T12:50:57.522Z,2.40
2017-12-11T12:53:25.764Z,2.40
2017-12-11T12:55:54.024Z,2.50
2017-12-11T12:58:21.496Z,2.40
2017-12-11T13:00:48.948Z,2.50
2017-12-11T13:03:16.452Z,2.50
2017-12-11T13:05:43.928Z,2.50
2017-12-11T13:08:11.380Z,2.60
2017-12-11T13:10:38.893Z,2.60
2017-12-11T13:13:07.112Z,2.70
2017-12-11T13:15:34.675Z,2.70
2017-12-11T13:18:02.228Z,2.70
2017-12-11T13:20:29.764Z,2.70
2017-12-11T13:22:57.368Z,2.70
2017-12-11T13:25:24.858Z,2.60
2017-12-11T13:27:52.399Z,2.60
2017-12-11T13:30:19.856Z,2.60
2017-12-11T13:32:48.104Z,2.50
2017-12-11T13:35:16.364Z,2.50
2017-12-11T13:37:43.900Z,2.50
2017-12-11T13:40:11.381Z,2.40
2017-12-11T13:42:38.824Z,2.40
2017-12-11T13:45:06.285Z,2.30
2017-12-11T13:47:33.748Z,2.30
2017-12-11T13:50:01.232Z,2.20
2017-12-11T13:52:29.453Z,2.20
2017-12-11T13:54:57.017Z,2.20
2017-12-11T13:57:24.480Z,2.10
2017-12-11T13:59:52.716Z,2.00
2017-12-11T14:02:20.255Z,2.00
2017-12-11T14:04:47.805Z,2.00
2017-12-11T14:07:15.349Z,2.00
2017-12-11T14:09:44.480Z,2.00
2017-12-11T14:12:11.976Z,2.00
2017-12-11T14:14:40.208Z,2.00
2017-12-11T14:17:07.773Z,2.00
2017-12-11T14:19:35.323Z,2.00
2017-12-11T14:22:03.544Z,2.10
2017-12-11T14:24:30.995Z,2.10
2017-12-11T14:26:58.456Z,2.10
2017-12-11T14:29:26.005Z,2.00
2017-12-11T14:31:54.277Z,2.00
2017-12-11T14:34:22.496Z,2.00
2017-12-11T14:36:49.959Z,2.00
2017-12-11T14:39:17.508Z,2.00
2017-12-11T14:41:45.049Z,2.00
2017-12-11T14:44:12.604Z,2.00
2017-12-11T14:46:40.847Z,2.10
2017-12-11T14:49:08.392Z,2.10
2017-12-11T14:51:35.945Z,2.20
2017-12-11T14:54:03.489Z,2.20
2017-12-11T14:56:31.082Z,2.20
2017-12-11T14:58:58.544Z,2.20
2017-12-11T15:01:26.013Z,2.30
2017-12-11T15:03:53.552Z,2.30
2017-12-11T15:06:21.204Z,2.30
2017-12-11T15:08:48.804Z,2.40
2017-12-11T15:11:16.291Z,2.30
2017-12-11T15:13:43.839Z,2.30
2017-12-11T15:16:11.372Z,2.30
2017-12-11T15:18:38.832Z,2.40
2017-12-11T15:21:07.061Z,2.40
2017-12-11T15:23:34.529Z,2.40
2017-12-11T15:26:02.783Z,2.40
2017-12-11T15:28:30.244Z,2.40
2017-12-11T15:30:57.714Z,2.40
2017-12-11T15:33:25.209Z,2.30
2017-12-11T15:35:52.744Z,2.30
2017-12-11T15:38:20.204Z,2.30
2017-12-11T15:40:48.453Z,2.30
2017-12-11T15:43:16.704Z,2.30
2017-12-11T15:45:44.196Z,2.30
2017-12-11T15:48:11.650Z,2.40
2017-12-11T15:50:39.099Z,2.40
2017-12-11T15:53:06.567Z,2.40
2017-12-11T15:55:34.023Z,2.40
2017-12-11T15:58:02.281Z,2.50
2017-12-11T16:00:29.732Z,2.50
2017-12-11T16:02:57.977Z,2.50
2017-12-11T16:05:25.436Z,2.50
2017-12-11T16:07:53.684Z,2.50
2017-12-11T16:10:21.224Z,2.50
2017-12-11T16:12:48.679Z,2.50
2017-12-11T16:15:16.904Z,2.50
2017-12-11T16:17:44.377Z,2.50
2017-12-11T16:20:12.639Z,2.50
2017-12-11T16:22:40.849Z,2.50
2017-12-11T16:25:08.316Z,2.50
2017-12-11T16:27:35.769Z,2.60
2017-12-11T16:30:03.316Z,2.60
2017-12-11T16:32:30.856Z,2.60
2017-12-11T16:34:58.408Z,2.70
2017-12-11T16:37:26.649Z,2.80
2017-12-11T16:39:54.220Z,2.80
2017-12-11T16:42:22.447Z,2.90
2017-12-11T16:44:50.016Z,2.90
2017-12-11T16:47:18.247Z,2.90
2017-12-11T16:49:45.816Z,2.90
2017-12-11T16:52:14.075Z,2.90
2017-12-11T16:54:42.346Z,2.90
2017-12-11T16:57:10.605Z,2.90
2017-12-11T16:59:38.829Z,2.80
2017-12-11T17:02:06.300Z,2.80
2017-12-11T17:04:34.540Z,2.90
2017-12-11T17:07:02.000Z,2.90
2017-12-11T17:09:30.262Z,3.00
2017-12-11T17:11:58.495Z,2.90
2017-12-11T17:14:25.962Z,2.90
2017-12-11T17:16:54.226Z,3.00
2017-12-11T17:19:22.461Z,3.00
2017-12-11T17:21:49.918Z,3.00
2017-12-11T17:24:18.920Z,3.10
2017-12-11T17:26:47.145Z,3.00
2017-12-11T17:29:14.701Z,3.00
2017-12-11T17:31:42.165Z,3.10
2017-12-11T17:34:10.412Z,3.10
2017-12-11T17:36:39.803Z,3.00
2017-12-11T17:39:08.054Z,3.00
2017-12-11T17:41:36.310Z,3.10
2017-12-11T17:44:03.849Z,3.10
2017-12-11T17:46:31.393Z,3.10
2017-12-11T17:48:58.849Z,3.10
2017-12-11T17:51:27.109Z,3.20
2017-12-11T17:53:55.356Z,3.20
2017-12-11T17:56:22.895Z,3.20
2017-12-11T17:58:50.466Z,3.20
2017-12-11T18:01:18.709Z,3.20
2017-12-11T18:03:46.960Z,3.20
2017-12-11T18:06:14.505Z,3.20
2017-12-11T18:08:42.105Z,3.20
2017-12-11T18:11:09.586Z,3.20
2017-12-11T18:13:37.560Z,3.20
2017-12-11T18:16:05.810Z,3.20
2017-12-11T18:18:34.089Z,3.20
2017-12-11T18:21:01.576Z,3.20
2017-12-11T18:23:29.036Z,3.20
2017-12-11T18:25:56.496Z,3.30
2017-12-11T18:28:24.764Z,3.30
2017-12-11T18:30:53.803Z,3.30
2017-12-11T18:33:21.271Z,3.20
2017-12-11T18:35:48.733Z,3.30
2017-12-11T18:38:16.962Z,3.30
2017-12-11T18:40:44.521Z,3.30
2017-12-11T18:43:11.985Z,3.30
2017-12-11T18:45:39.447Z,3.30
2017-12-11T18:48:06.947Z,3.30
2017-12-11T18:50:34.493Z,3.30
2017-12-11T18:53:02.724Z,3.30
2017-12-11T18:55:30.188Z,3.30
2017-12-11T18:57:57.683Z,3.30
2017-12-11T19:00:25.141Z,3.30
2017-12-11T19:02:52.592Z,3.30
2017-12-11T19:05:20.794Z,3.40
2017-12-11T19:07:48.263Z,3.40
2017-12-11T19:10:15.721Z,3.40
2017-12-11T19:12:43.190Z,3.40
2017-12-11T19:15:10.747Z,3.40
2017-12-11T19:17:39.006Z,3.40
2017-12-11T19:20:06.472Z,3.40
2017-12-11T19:22:34.020Z,3.40
2017-12-11T19:25:01.563Z,3.40
2017-12-11T19:27:29.793Z,3.40
2017-12-11T19:29:57.296Z,3.40
2017-12-11T19:32:24.816Z,3.50
2017-12-11T19:34:53.072Z,3.50
2017-12-11T19:37:20.549Z,3.40
2017-12-11T19:39:48.060Z,3.50
2017-12-11T19:42:16.301Z,3.50
2017-12-11T19:44:43.779Z,3.40
2017-12-11T19:47:11.994Z,3.40
2017-12-11T19:49:39.490Z,3.40
2017-12-11T19:52:07.004Z,3.40
2017-12-11T19:54:34.553Z,3.40
2017-12-11T19:57:02.785Z,3.40
2017-12-11T19:59:30.248Z,3.40
2017-12-11T20:01:58.509Z,3.40
2017-12-11T20:04:26.800Z,3.30
2017-12-11T20:06:54.309Z,3.30
2017-12-11T20:09:21.856Z,3.30
2017-12-11T20:11:50.135Z,3.30
2017-12-11T20:14:18.362Z,3.30
2017-12-11T20:16:45.810Z,3.30
2017-12-11T20:19:13.282Z,3.30
2017-12-11T20:21:40.803Z,3.30
2017-12-11T20:24:09.059Z,3.20
2017-12-11T20:26:37.284Z,3.20
2017-12-11T20:29:04.888Z,3.20
2017-12-11T20:31:33.127Z,3.10
2017-12-11T20:34:01.360Z,3.10
2017-12-11T20:36:28.809Z,3.10
2017-12-11T20:38:56.276Z,3.10
2017-12-11T20:41:23.737Z,3.10
2017-12-11T20:43:51.240Z,3.10
2017-12-11T20:46:18.735Z,3.10
2017-12-11T20:48:46.203Z,3.10
2017-12-11T20:51:13.673Z,3.20
2017-12-11T20:53:41.227Z,3.20
2017-12-11T20:56:08.688Z,3.20
2017-12-11T20:58:36.159Z,3.30
2017-12-11T21:01:03.654Z,3.30
2017-12-11T21:03:31.873Z,3.40
2017-12-11T21:05:59.460Z,3.40
2017-12-11T21:08:26.937Z,3.50
2017-12-11T21:10:54.404Z,3.50
2017-12-11T21:13:21.943Z,3.50
2017-12-11T21:15:49.450Z,3.50
2017-12-11T21:18:16.915Z,3.50
2017-12-11T21:20:44.377Z,3.50
2017-12-11T21:23:11.927Z,3.50
2017-12-11T21:25:39.584Z,3.50
2017-12-11T21:28:07.806Z,3.60
2017-12-11T21:30:35.372Z,3.60
2017-12-11T21:33:02.831Z,3.60
2017-12-11T21:35:31.127Z,3.60
2017-12-11T21:37:58.648Z,3.60
2017-12-11T21:40:26.101Z,3.60
2017-12-11T21:42:53.608Z,3.60
2017-12-11T21:45:21.937Z,3.50
2017-12-11T21:47:49.401Z,3.50
2017-12-11T21:50:16.958Z,3.50
2017-12-11T21:52:45.201Z,3.50
2017-12-11T21:55:12.660Z,3.50
2017-12-11T21:57:40.889Z,3.50
2017-12-11T22:00:08.456Z,3.50
2017-12-11T22:02:35.908Z,3.50
2017-12-11T22:05:04.149Z,3.60
2017-12-11T22:07:31.605Z,3.60
2017-12-11T22:09:59.844Z,3.60
2017-12-11T22:12:27.304Z,3.60
2017-12-11T22:14:54.850Z,3.70
2017-12-11T22:17:22.316Z,3.70
2017-12-11T22:19:49.772Z,3.80
2017-12-11T22:22:17.348Z,3.80
2017-12-11T22:24:44.805Z,3.80
2017-12-11T22:27:13.050Z,3.80
2017-12-11T22:29:41.304Z,3.80
2017-12-11T22:32:08.760Z,3.80
2017-12-11T22:34:37.111Z,3.50
2017-12-11T22:37:04.653Z,3.40
2017-12-11T22:39:32.141Z,3.40
2017-12-11T22:41:59.606Z,3.30
2017-12-11T22:44:27.059Z,3.30
2017-12-11T22:46:54.630Z,3.20
2017-12-11T22:49:22.888Z,3.10
2017-12-11T22:51:50.425Z,3.10
2017-12-11T22:54:17.976Z,3.10
2017-12-11T22:56:45.447Z,3.00
2017-12-11T22:59:12.901Z,3.00
2017-12-11T23:01:40.396Z,3.00
2017-12-11T23:04:07.940Z,3.10
2017-12-11T23:06:35.481Z,3.00
2017-12-11T23:09:02.937Z,3.00
2017-12-11T23:11:31.180Z,3.00
2017-12-11T23:13:58.733Z,3.00
2017-12-11T23:16:26.988Z,2.90
2017-12-11T23:18:54.532Z,2.80
2017-12-11T23:21:22.005Z,2.90
2017-12-11T23:23:49.516Z,2.90
2017-12-11T23:26:19.519Z,2.90
2017-12-11T23:28:47.064Z,2.90
2017-12-11T23:31:15.319Z,2.80
2017-12-11T23:33:42.869Z,2.80
2017-12-11T23:36:11.104Z,2.80
2017-12-11T23:38:38.663Z,2.80
2017-12-11T23:41:06.125Z,2.80
2017-12-11T23:43:34.356Z,2.70
2017-12-11T23:46:01.917Z,2.70
2017-12-11T23:48:29.384Z,2.60
2017-12-11T23:50:56.900Z,2.50
2017-12-11T23:53:25.165Z,2.60
2017-12-11T23:55:53.420Z,2.40
2017-12-11T23:58:21.643Z,2.50
